sensor_id;sensor_type;location;lat;lon;timestamp;P1;durP1;ratioP1;P2;durP2;ratioP2
10503;SDS011;5299;48.704;9.138;2022-08-05T00:00:54;5.07;;;3.28;;
10503;SDS011;5299;48.704;9.138;2022-08-05T00:05:25;4.82;;;2.97;;
10503;SDS011;5299;48.704;9.138;2022-08-05T00:09:49;7.20;;;3.30;;
10503;SDS011;5299;48.704;9.138;2022-08-05T00:13:54;3.65;;;2.72;;
10503;SDS011;5299;48.704;9.138;2022-08-05T00:18:26;5.82;;;2.83;;
10503;SDS011;5299;48.704;9.138;2022-08-05T00:28:35;5.53;;;3.15;;
10503;SDS011;5299;48.704;9.138;2022-08-05T00:32:52;5.85;;;2.85;;
10503;SDS011;5299;48.704;9.138;2022-08-05T00:37:40;6.72;;;3.50;;
10503;SDS011;5299;48.704;9.138;2022-08-05T00:42:02;5.65;;;3.88;;
10503;SDS011;5299;48.704;9.138;2022-08-05T00:46:39;5.88;;;3.42;;
10503;SDS011;5299;48.704;9.138;2022-08-05T00:51:08;5.22;;;3.60;;
10503;SDS011;5299;48.704;9.138;2022-08-05T00:55:36;4.63;;;3.05;;
10503;SDS011;5299;48.704;9.138;2022-08-05T00:59:47;7.13;;;3.60;;
10503;SDS011;5299;48.704;9.138;2022-08-05T01:04:22;4.60;;;2.58;;
10503;SDS011;5299;48.704;9.138;2022-08-05T01:14:01;5.95;;;2.05;;
10503;SDS011;5299;48.704;9.138;2022-08-05T01:19:14;8.85;;;2.30;;
10503;SDS011;5299;48.704;9.138;2022-08-05T01:33:47;5.25;;;2.65;;
10503;SDS011;5299;48.704;9.138;2022-08-05T01:38:00;4.47;;;2.42;;
10503;SDS011;5299;48.704;9.138;2022-08-05T01:42:37;6.55;;;2.47;;
10503;SDS011;5299;48.704;9.138;2022-08-05T01:47:16;11.27;;;2.40;;
10503;SDS011;5299;48.704;9.138;2022-08-05T01:51:44;4.82;;;1.85;;
10503;SDS011;5299;48.704;9.138;2022-08-05T01:55:56;7.07;;;2.22;;
10503;SDS011;5299;48.704;9.138;2022-08-05T02:00:13;7.13;;;2.47;;
10503;SDS011;5299;48.704;9.138;2022-08-05T02:04:37;8.82;;;2.33;;
10503;SDS011;5299;48.704;9.138;2022-08-05T02:09:22;9.43;;;2.50;;
10503;SDS011;5299;48.704;9.138;2022-08-05T02:14:29;8.57;;;2.45;;
10503;SDS011;5299;48.704;9.138;2022-08-05T02:19:19;12.00;;;2.72;;
10503;SDS011;5299;48.704;9.138;2022-08-05T02:29:05;7.22;;;2.97;;
10503;SDS011;5299;48.704;9.138;2022-08-05T02:33:26;13.48;;;3.03;;
10503;SDS011;5299;48.704;9.138;2022-08-05T02:38:24;8.38;;;2.20;;
10503;SDS011;5299;48.704;9.138;2022-08-05T02:42:45;10.40;;;2.63;;
10503;SDS011;5299;48.704;9.138;2022-08-05T02:47:43;12.02;;;2.78;;
10503;SDS011;5299;48.704;9.138;2022-08-05T02:56:37;6.40;;;2.47;;
10503;SDS011;5299;48.704;9.138;2022-08-05T03:06:27;5.82;;;2.22;;
10503;SDS011;5299;48.704;9.138;2022-08-05T03:10:50;7.25;;;2.90;;
10503;SDS011;5299;48.704;9.138;2022-08-05T03:15:18;8.23;;;3.00;;
10503;SDS011;5299;48.704;9.138;2022-08-05T03:24:40;7.15;;;2.72;;
10503;SDS011;5299;48.704;9.138;2022-08-05T03:29:32;11.63;;;3.42;;
10503;SDS011;5299;48.704;9.138;2022-08-05T03:34:04;4.07;;;2.47;;
10503;SDS011;5299;48.704;9.138;2022-08-05T03:38:48;5.80;;;2.42;;
10503;SDS011;5299;48.704;9.138;2022-08-05T03:48:29;13.73;;;3.97;;
10503;SDS011;5299;48.704;9.138;2022-08-05T03:53:27;6.50;;;2.65;;
10503;SDS011;5299;48.704;9.138;2022-08-05T04:08:21;9.30;;;3.08;;
10503;SDS011;5299;48.704;9.138;2022-08-05T04:18:15;5.95;;;2.80;;
10503;SDS011;5299;48.704;9.138;2022-08-05T04:22:56;10.30;;;3.05;;
10503;SDS011;5299;48.704;9.138;2022-08-05T04:28:01;8.85;;;3.22;;
10503;SDS011;5299;48.704;9.138;2022-08-05T04:33:01;11.45;;;2.78;;
10503;SDS011;5299;48.704;9.138;2022-08-05T04:37:55;7.05;;;2.97;;
10503;SDS011;5299;48.704;9.138;2022-08-05T04:42:06;8.55;;;3.28;;
10503;SDS011;5299;48.704;9.138;2022-08-05T04:46:36;6.25;;;2.55;;
10503;SDS011;5299;48.704;9.138;2022-08-05T04:51:04;7.38;;;2.95;;
10503;SDS011;5299;48.704;9.138;2022-08-05T04:55:38;7.82;;;3.05;;
10503;SDS011;5299;48.704;9.138;2022-08-05T05:05:13;7.45;;;3.28;;
10503;SDS011;5299;48.704;9.138;2022-08-05T05:09:39;8.30;;;3.67;;
10503;SDS011;5299;48.704;9.138;2022-08-05T05:13:51;9.63;;;3.92;;
10503;SDS011;5299;48.704;9.138;2022-08-05T05:18:17;12.50;;;3.83;;
10503;SDS011;5299;48.704;9.138;2022-08-05T05:26:55;10.15;;;4.15;;
10503;SDS011;5299;48.704;9.138;2022-08-05T05:31:05;5.82;;;3.42;;
10503;SDS011;5299;48.704;9.138;2022-08-05T05:35:40;5.70;;;3.25;;
10503;SDS011;5299;48.704;9.138;2022-08-05T05:40:13;6.47;;;3.80;;
10503;SDS011;5299;48.704;9.138;2022-08-05T05:44:26;10.93;;;3.67;;
10503;SDS011;5299;48.704;9.138;2022-08-05T05:48:59;10.40;;;5.20;;
10503;SDS011;5299;48.704;9.138;2022-08-05T05:53:22;8.52;;;4.03;;
10503;SDS011;5299;48.704;9.138;2022-08-05T05:57:48;10.95;;;4.00;;
10503;SDS011;5299;48.704;9.138;2022-08-05T06:02:02;11.18;;;4.10;;
10503;SDS011;5299;48.704;9.138;2022-08-05T06:06:03;11.45;;;3.75;;
10503;SDS011;5299;48.704;9.138;2022-08-05T06:10:07;12.30;;;3.75;;
10503;SDS011;5299;48.704;9.138;2022-08-05T06:14:10;12.73;;;3.63;;
10503;SDS011;5299;48.704;9.138;2022-08-05T06:18:12;12.10;;;3.72;;
10503;SDS011;5299;48.704;9.138;2022-08-05T06:22:21;11.52;;;4.03;;
10503;SDS011;5299;48.704;9.138;2022-08-05T06:26:24;7.25;;;3.78;;
10503;SDS011;5299;48.704;9.138;2022-08-05T06:30:33;7.63;;;3.80;;
10503;SDS011;5299;48.704;9.138;2022-08-05T06:34:35;8.85;;;3.33;;
10503;SDS011;5299;48.704;9.138;2022-08-05T06:38:37;10.25;;;4.25;;
10503;SDS011;5299;48.704;9.138;2022-08-05T06:42:48;11.82;;;4.32;;
10503;SDS011;5299;48.704;9.138;2022-08-05T06:46:53;9.48;;;3.30;;
10503;SDS011;5299;48.704;9.138;2022-08-05T06:50:56;10.85;;;2.67;;
10503;SDS011;5299;48.704;9.138;2022-08-05T06:54:57;4.07;;;2.30;;
10503;SDS011;5299;48.704;9.138;2022-08-05T06:58:59;7.55;;;2.42;;
10503;SDS011;5299;48.704;9.138;2022-08-05T07:03:01;5.70;;;2.22;;
10503;SDS011;5299;48.704;9.138;2022-08-05T07:07:07;5.38;;;2.30;;
10503;SDS011;5299;48.704;9.138;2022-08-05T07:11:09;5.75;;;2.53;;
10503;SDS011;5299;48.704;9.138;2022-08-05T07:15:15;5.73;;;2.20;;
10503;SDS011;5299;48.704;9.138;2022-08-05T07:19:56;4.18;;;2.50;;
10503;SDS011;5299;48.704;9.138;2022-08-05T07:24:17;6.95;;;1.95;;
10503;SDS011;5299;48.704;9.138;2022-08-05T07:28:21;6.03;;;2.08;;
10503;SDS011;5299;48.704;9.138;2022-08-05T07:32:22;2.28;;;1.45;;
10503;SDS011;5299;48.704;9.138;2022-08-05T07:36:26;4.20;;;1.88;;
10503;SDS011;5299;48.704;9.138;2022-08-05T07:40:27;3.88;;;1.73;;
10503;SDS011;5299;48.704;9.138;2022-08-05T07:44:33;2.50;;;1.48;;
10503;SDS011;5299;48.704;9.138;2022-08-05T07:48:36;5.20;;;1.92;;
10503;SDS011;5299;48.704;9.138;2022-08-05T07:52:57;2.90;;;1.27;;
10503;SDS011;5299;48.704;9.138;2022-08-05T07:56:59;3.00;;;1.50;;
10503;SDS011;5299;48.704;9.138;2022-08-05T08:01:24;4.00;;;1.75;;
10503;SDS011;5299;48.704;9.138;2022-08-05T08:05:30;6.57;;;1.52;;
10503;SDS011;5299;48.704;9.138;2022-08-05T08:09:39;5.80;;;1.60;;
10503;SDS011;5299;48.704;9.138;2022-08-05T08:13:41;2.90;;;1.77;;
10503;SDS011;5299;48.704;9.138;2022-08-05T08:18:01;4.63;;;1.50;;
10503;SDS011;5299;48.704;9.138;2022-08-05T08:26:09;5.00;;;1.77;;
10503;SDS011;5299;48.704;9.138;2022-08-05T08:30:12;3.22;;;1.67;;
10503;SDS011;5299;48.704;9.138;2022-08-05T08:34:34;3.08;;;1.30;;
10503;SDS011;5299;48.704;9.138;2022-08-05T08:38:36;2.58;;;1.35;;
10503;SDS011;5299;48.704;9.138;2022-08-05T08:42:38;2.42;;;1.38;;
10503;SDS011;5299;48.704;9.138;2022-08-05T08:46:51;3.38;;;1.30;;
10503;SDS011;5299;48.704;9.138;2022-08-05T08:50:54;2.20;;;1.30;;
10503;SDS011;5299;48.704;9.138;2022-08-05T08:55:15;2.63;;;1.35;;
10503;SDS011;5299;48.704;9.138;2022-08-05T08:59:37;3.30;;;1.42;;
10503;SDS011;5299;48.704;9.138;2022-08-05T09:03:42;5.07;;;1.58;;
10503;SDS011;5299;48.704;9.138;2022-08-05T09:07:52;5.90;;;2.03;;
10503;SDS011;5299;48.704;9.138;2022-08-05T09:11:58;2.67;;;1.15;;
10503;SDS011;5299;48.704;9.138;2022-08-05T09:16:13;3.17;;;1.15;;
10503;SDS011;5299;48.704;9.138;2022-08-05T09:20:17;2.28;;;1.42;;
10503;SDS011;5299;48.704;9.138;2022-08-05T09:24:36;2.72;;;1.35;;
10503;SDS011;5299;48.704;9.138;2022-08-05T09:28:39;2.42;;;1.50;;
10503;SDS011;5299;48.704;9.138;2022-08-05T09:32:41;4.68;;;1.25;;
10503;SDS011;5299;48.704;9.138;2022-08-05T09:36:47;2.33;;;1.13;;
10503;SDS011;5299;48.704;9.138;2022-08-05T09:41:03;2.85;;;1.52;;
10503;SDS011;5299;48.704;9.138;2022-08-05T09:45:08;6.80;;;1.75;;
10503;SDS011;5299;48.704;9.138;2022-08-05T09:49:30;2.95;;;1.25;;
10503;SDS011;5299;48.704;9.138;2022-08-05T09:53:52;5.25;;;1.70;;
10503;SDS011;5299;48.704;9.138;2022-08-05T09:58:08;6.28;;;1.75;;
10503;SDS011;5299;48.704;9.138;2022-08-05T10:02:12;4.90;;;1.20;;
10503;SDS011;5299;48.704;9.138;2022-08-05T10:06:20;1.67;;;0.90;;
10503;SDS011;5299;48.704;9.138;2022-08-05T10:10:25;14.45;;;2.80;;
10503;SDS011;5299;48.704;9.138;2022-08-05T10:14:32;4.50;;;1.52;;
10503;SDS011;5299;48.704;9.138;2022-08-05T10:18:34;7.25;;;1.70;;
10503;SDS011;5299;48.704;9.138;2022-08-05T10:22:37;1.85;;;1.02;;
10503;SDS011;5299;48.704;9.138;2022-08-05T10:26:43;2.42;;;1.25;;
10503;SDS011;5299;48.704;9.138;2022-08-05T10:30:52;4.53;;;1.15;;
10503;SDS011;5299;48.704;9.138;2022-08-05T10:35:14;3.22;;;1.58;;
10503;SDS011;5299;48.704;9.138;2022-08-05T10:39:17;3.97;;;1.40;;
10503;SDS011;5299;48.704;9.138;2022-08-05T10:48:25;5.10;;;1.38;;
10503;SDS011;5299;48.704;9.138;2022-08-05T10:52:51;2.90;;;1.52;;
10503;SDS011;5299;48.704;9.138;2022-08-05T10:57:00;3.15;;;1.48;;
10503;SDS011;5299;48.704;9.138;2022-08-05T11:01:05;3.05;;;1.25;;
10503;SDS011;5299;48.704;9.138;2022-08-05T11:05:08;3.90;;;2.03;;
10503;SDS011;5299;48.704;9.138;2022-08-05T11:09:11;5.25;;;1.75;;
10503;SDS011;5299;48.704;9.138;2022-08-05T11:13:39;3.05;;;1.80;;
10503;SDS011;5299;48.704;9.138;2022-08-05T11:26:51;4.32;;;1.48;;
10503;SDS011;5299;48.704;9.138;2022-08-05T11:31:50;6.88;;;1.60;;
10503;SDS011;5299;48.704;9.138;2022-08-05T11:36:47;2.33;;;1.50;;
10503;SDS011;5299;48.704;9.138;2022-08-05T11:41:02;3.42;;;1.40;;
10503;SDS011;5299;48.704;9.138;2022-08-05T11:45:45;3.67;;;1.63;;
10503;SDS011;5299;48.704;9.138;2022-08-05T11:50:07;3.72;;;1.73;;
10503;SDS011;5299;48.704;9.138;2022-08-05T11:54:12;3.70;;;2.10;;
10503;SDS011;5299;48.704;9.138;2022-08-05T11:58:23;7.28;;;1.63;;
10503;SDS011;5299;48.704;9.138;2022-08-05T12:02:36;4.47;;;1.85;;
10503;SDS011;5299;48.704;9.138;2022-08-05T12:06:40;3.97;;;2.08;;
10503;SDS011;5299;48.704;9.138;2022-08-05T12:10:49;2.20;;;1.20;;
10503;SDS011;5299;48.704;9.138;2022-08-05T12:14:52;3.80;;;1.40;;
10503;SDS011;5299;48.704;9.138;2022-08-05T12:18:57;5.80;;;2.60;;
10503;SDS011;5299;48.704;9.138;2022-08-05T12:23:09;5.38;;;1.70;;
10503;SDS011;5299;48.704;9.138;2022-08-05T12:27:49;2.65;;;1.33;;
10503;SDS011;5299;48.704;9.138;2022-08-05T12:32:03;7.82;;;1.63;;
10503;SDS011;5299;48.704;9.138;2022-08-05T12:36:45;2.70;;;1.40;;
10503;SDS011;5299;48.704;9.138;2022-08-05T12:41:20;2.45;;;1.35;;
10503;SDS011;5299;48.704;9.138;2022-08-05T12:50:13;3.28;;;1.40;;
10503;SDS011;5299;48.704;9.138;2022-08-05T12:54:31;3.40;;;1.50;;
10503;SDS011;5299;48.704;9.138;2022-08-05T12:58:36;4.45;;;1.90;;
10503;SDS011;5299;48.704;9.138;2022-08-05T13:03:14;2.55;;;1.60;;
10503;SDS011;5299;48.704;9.138;2022-08-05T13:07:55;2.78;;;1.35;;
10503;SDS011;5299;48.704;9.138;2022-08-05T13:12:46;2.67;;;1.80;;
10503;SDS011;5299;48.704;9.138;2022-08-05T13:16:58;2.40;;;1.52;;
10503;SDS011;5299;48.704;9.138;2022-08-05T13:21:13;3.85;;;1.77;;
10503;SDS011;5299;48.704;9.138;2022-08-05T13:25:20;2.63;;;1.30;;
10503;SDS011;5299;48.704;9.138;2022-08-05T13:29:48;4.18;;;2.30;;
10503;SDS011;5299;48.704;9.138;2022-08-05T13:34:18;3.58;;;1.58;;
10503;SDS011;5299;48.704;9.138;2022-08-05T13:38:49;4.00;;;1.85;;
10503;SDS011;5299;48.704;9.138;2022-08-05T13:42:57;6.00;;;2.22;;
10503;SDS011;5299;48.704;9.138;2022-08-05T13:47:12;2.20;;;1.63;;
10503;SDS011;5299;48.704;9.138;2022-08-05T13:56:04;3.28;;;1.60;;
10503;SDS011;5299;48.704;9.138;2022-08-05T14:00:25;5.57;;;2.03;;
10503;SDS011;5299;48.704;9.138;2022-08-05T14:04:41;6.53;;;2.13;;
10503;SDS011;5299;48.704;9.138;2022-08-05T14:09:28;2.58;;;1.65;;
10503;SDS011;5299;48.704;9.138;2022-08-05T14:13:46;5.85;;;1.70;;
10503;SDS011;5299;48.704;9.138;2022-08-05T14:17:59;6.63;;;1.95;;
10503;SDS011;5299;48.704;9.138;2022-08-05T14:22:04;3.42;;;1.45;;
10503;SDS011;5299;48.704;9.138;2022-08-05T14:26:12;5.82;;;1.95;;
10503;SDS011;5299;48.704;9.138;2022-08-05T14:30:33;3.60;;;2.13;;
10503;SDS011;5299;48.704;9.138;2022-08-05T14:34:36;4.57;;;1.85;;
10503;SDS011;5299;48.704;9.138;2022-08-05T14:38:43;6.38;;;2.03;;
10503;SDS011;5299;48.704;9.138;2022-08-05T14:42:57;7.25;;;1.73;;
10503;SDS011;5299;48.704;9.138;2022-08-05T14:47:14;6.80;;;2.42;;
10503;SDS011;5299;48.704;9.138;2022-08-05T14:51:48;6.43;;;2.22;;
10503;SDS011;5299;48.704;9.138;2022-08-05T14:55:51;8.45;;;2.17;;
10503;SDS011;5299;48.704;9.138;2022-08-05T14:59:52;4.93;;;1.85;;
10503;SDS011;5299;48.704;9.138;2022-08-05T15:03:58;9.82;;;2.53;;
10503;SDS011;5299;48.704;9.138;2022-08-05T15:08:06;7.70;;;2.05;;
10503;SDS011;5299;48.704;9.138;2022-08-05T15:12:17;9.63;;;3.42;;
10503;SDS011;5299;48.704;9.138;2022-08-05T15:16:18;8.63;;;3.50;;
10503;SDS011;5299;48.704;9.138;2022-08-05T15:20:22;6.63;;;3.45;;
10503;SDS011;5299;48.704;9.138;2022-08-05T15:24:25;6.47;;;3.85;;
10503;SDS011;5299;48.704;9.138;2022-08-05T15:28:30;9.20;;;3.13;;
10503;SDS011;5299;48.704;9.138;2022-08-05T15:32:32;10.52;;;4.00;;
10503;SDS011;5299;48.704;9.138;2022-08-05T15:36:36;9.10;;;3.85;;
10503;SDS011;5299;48.704;9.138;2022-08-05T15:40:38;9.10;;;4.05;;
10503;SDS011;5299;48.704;9.138;2022-08-05T15:45:00;5.90;;;3.55;;
10503;SDS011;5299;48.704;9.138;2022-08-05T15:49:02;6.63;;;4.15;;
10503;SDS011;5299;48.704;9.138;2022-08-05T15:53:12;5.55;;;3.50;;
10503;SDS011;5299;48.704;9.138;2022-08-05T15:57:14;6.30;;;4.28;;
10503;SDS011;5299;48.704;9.138;2022-08-05T16:01:16;7.00;;;3.85;;
10503;SDS011;5299;48.704;9.138;2022-08-05T16:05:20;9.25;;;3.50;;
10503;SDS011;5299;48.704;9.138;2022-08-05T16:09:28;6.72;;;4.35;;
10503;SDS011;5299;48.704;9.138;2022-08-05T16:13:32;4.80;;;3.20;;
10503;SDS011;5299;48.704;9.138;2022-08-05T16:17:35;5.55;;;2.80;;
10503;SDS011;5299;48.704;9.138;2022-08-05T16:21:36;8.23;;;3.53;;
10503;SDS011;5299;48.704;9.138;2022-08-05T16:26:05;5.90;;;3.55;;
10503;SDS011;5299;48.704;9.138;2022-08-05T16:30:08;9.18;;;3.67;;
10503;SDS011;5299;48.704;9.138;2022-08-05T16:34:26;4.35;;;2.92;;
10503;SDS011;5299;48.704;9.138;2022-08-05T16:38:30;4.80;;;3.13;;
10503;SDS011;5299;48.704;9.138;2022-08-05T16:42:38;4.32;;;2.70;;
10503;SDS011;5299;48.704;9.138;2022-08-05T16:46:55;7.10;;;3.00;;
10503;SDS011;5299;48.704;9.138;2022-08-05T16:51:30;5.38;;;3.03;;
10503;SDS011;5299;48.704;9.138;2022-08-05T16:56:08;5.45;;;3.45;;
10503;SDS011;5299;48.704;9.138;2022-08-05T17:00:58;6.65;;;3.42;;
10503;SDS011;5299;48.704;9.138;2022-08-05T17:05:07;5.10;;;2.38;;
10503;SDS011;5299;48.704;9.138;2022-08-05T17:09:09;4.97;;;2.60;;
10503;SDS011;5299;48.704;9.138;2022-08-05T17:13:10;4.53;;;2.38;;
10503;SDS011;5299;48.704;9.138;2022-08-05T17:17:17;7.82;;;3.42;;
10503;SDS011;5299;48.704;9.138;2022-08-05T17:21:22;6.07;;;3.13;;
10503;SDS011;5299;48.704;9.138;2022-08-05T17:25:24;4.85;;;2.63;;
10503;SDS011;5299;48.704;9.138;2022-08-05T17:29:39;4.82;;;2.78;;
10503;SDS011;5299;48.704;9.138;2022-08-05T17:33:41;4.30;;;2.40;;
10503;SDS011;5299;48.704;9.138;2022-08-05T17:37:51;5.82;;;2.80;;
10503;SDS011;5299;48.704;9.138;2022-08-05T17:42:01;3.88;;;2.53;;
10503;SDS011;5299;48.704;9.138;2022-08-05T17:46:20;6.85;;;2.88;;
10503;SDS011;5299;48.704;9.138;2022-08-05T17:50:24;7.32;;;3.00;;
10503;SDS011;5299;48.704;9.138;2022-08-05T17:54:30;4.57;;;2.60;;
10503;SDS011;5299;48.704;9.138;2022-08-05T17:58:36;4.85;;;2.42;;
10503;SDS011;5299;48.704;9.138;2022-08-05T18:02:44;6.30;;;3.30;;
10503;SDS011;5299;48.704;9.138;2022-08-05T18:06:54;7.53;;;3.08;;
10503;SDS011;5299;48.704;9.138;2022-08-05T18:11:27;4.93;;;3.17;;
10503;SDS011;5299;48.704;9.138;2022-08-05T18:15:37;4.65;;;2.83;;
10503;SDS011;5299;48.704;9.138;2022-08-05T18:20:16;9.00;;;5.57;;
10503;SDS011;5299;48.704;9.138;2022-08-05T18:24:39;10.13;;;6.53;;
10503;SDS011;5299;48.704;9.138;2022-08-05T18:29:07;9.70;;;6.15;;
10503;SDS011;5299;48.704;9.138;2022-08-05T18:38:32;10.52;;;6.22;;
10503;SDS011;5299;48.704;9.138;2022-08-05T18:42:43;8.93;;;7.22;;
10503;SDS011;5299;48.704;9.138;2022-08-05T18:46:46;10.65;;;8.30;;
10503;SDS011;5299;48.704;9.138;2022-08-05T18:50:48;10.23;;;7.70;;
10503;SDS011;5299;48.704;9.138;2022-08-05T18:55:29;12.70;;;8.25;;
10503;SDS011;5299;48.704;9.138;2022-08-05T18:59:34;11.07;;;8.55;;
10503;SDS011;5299;48.704;9.138;2022-08-05T19:03:55;13.82;;;9.25;;
10503;SDS011;5299;48.704;9.138;2022-08-05T19:07:59;12.25;;;9.55;;
10503;SDS011;5299;48.704;9.138;2022-08-05T19:12:02;16.98;;;12.07;;
10503;SDS011;5299;48.704;9.138;2022-08-05T19:58:05;9.27;;;7.28;;
10503;SDS011;5299;48.704;9.138;2022-08-05T20:02:27;11.73;;;7.68;;
10503;SDS011;5299;48.704;9.138;2022-08-05T20:06:31;9.98;;;7.38;;
10503;SDS011;5299;48.704;9.138;2022-08-05T20:10:46;10.60;;;7.72;;
10503;SDS011;5299;48.704;9.138;2022-08-05T20:14:50;10.45;;;7.30;;
10503;SDS011;5299;48.704;9.138;2022-08-05T20:18:53;10.40;;;7.75;;
10503;SDS011;5299;48.704;9.138;2022-08-05T20:22:55;9.73;;;7.65;;
10503;SDS011;5299;48.704;9.138;2022-08-05T20:26:58;8.95;;;7.35;;
10503;SDS011;5299;48.704;9.138;2022-08-05T20:31:00;10.52;;;7.53;;
10503;SDS011;5299;48.704;9.138;2022-08-05T20:35:02;9.95;;;8.50;;
10503;SDS011;5299;48.704;9.138;2022-08-05T20:39:03;9.35;;;7.55;;
10503;SDS011;5299;48.704;9.138;2022-08-05T20:43:06;10.00;;;7.63;;
10503;SDS011;5299;48.704;9.138;2022-08-05T20:47:07;12.50;;;7.68;;
10503;SDS011;5299;48.704;9.138;2022-08-05T20:51:10;12.20;;;7.93;;
10503;SDS011;5299;48.704;9.138;2022-08-05T20:55:11;16.45;;;8.00;;
10503;SDS011;5299;48.704;9.138;2022-08-05T20:59:35;10.15;;;7.05;;
10503;SDS011;5299;48.704;9.138;2022-08-05T21:03:56;11.95;;;9.20;;
10503;SDS011;5299;48.704;9.138;2022-08-05T21:07:57;11.85;;;7.63;;
10503;SDS011;5299;48.704;9.138;2022-08-05T21:11:59;12.82;;;8.38;;
10503;SDS011;5299;48.704;9.138;2022-08-05T21:16:11;10.45;;;7.50;;
10503;SDS011;5299;48.704;9.138;2022-08-05T21:20:12;10.60;;;8.10;;
10503;SDS011;5299;48.704;9.138;2022-08-05T21:24:33;9.35;;;6.55;;
10503;SDS011;5299;48.704;9.138;2022-08-05T21:28:34;9.90;;;7.38;;
10503;SDS011;5299;48.704;9.138;2022-08-05T21:32:38;9.35;;;6.97;;
10503;SDS011;5299;48.704;9.138;2022-08-05T21:36:43;9.82;;;7.07;;
10503;SDS011;5299;48.704;9.138;2022-08-05T21:40:49;11.48;;;6.63;;
10503;SDS011;5299;48.704;9.138;2022-08-05T21:44:50;9.18;;;5.90;;
10503;SDS011;5299;48.704;9.138;2022-08-05T21:48:52;8.95;;;6.13;;
10503;SDS011;5299;48.704;9.138;2022-08-05T21:52:57;9.13;;;5.90;;
10503;SDS011;5299;48.704;9.138;2022-08-05T21:57:04;9.27;;;5.82;;
10503;SDS011;5299;48.704;9.138;2022-08-05T22:01:26;7.93;;;5.68;;
10503;SDS011;5299;48.704;9.138;2022-08-05T22:05:35;9.55;;;5.38;;
10503;SDS011;5299;48.704;9.138;2022-08-05T22:09:49;9.25;;;5.10;;
10503;SDS011;5299;48.704;9.138;2022-08-05T22:13:50;7.93;;;4.85;;
10503;SDS011;5299;48.704;9.138;2022-08-05T22:18:12;7.45;;;3.75;;
10503;SDS011;5299;48.704;9.138;2022-08-05T22:22:14;6.57;;;3.65;;
10503;SDS011;5299;48.704;9.138;2022-08-05T22:26:16;6.38;;;3.75;;
10503;SDS011;5299;48.704;9.138;2022-08-05T22:30:36;6.63;;;3.10;;
10503;SDS011;5299;48.704;9.138;2022-08-05T22:34:56;6.05;;;3.15;;
10503;SDS011;5299;48.704;9.138;2022-08-05T22:38:58;6.13;;;3.42;;
10503;SDS011;5299;48.704;9.138;2022-08-05T22:43:09;5.75;;;2.90;;
10503;SDS011;5299;48.704;9.138;2022-08-05T22:47:13;7.03;;;3.65;;
10503;SDS011;5299;48.704;9.138;2022-08-05T22:51:30;5.33;;;3.10;;
10503;SDS011;5299;48.704;9.138;2022-08-05T22:55:51;5.28;;;2.42;;
10503;SDS011;5299;48.704;9.138;2022-08-05T22:59:59;4.72;;;2.35;;
10503;SDS011;5299;48.704;9.138;2022-08-05T23:04:03;5.47;;;2.75;;
10503;SDS011;5299;48.704;9.138;2022-08-05T23:08:06;5.22;;;2.70;;
10503;SDS011;5299;48.704;9.138;2022-08-05T23:12:11;5.75;;;2.45;;
10503;SDS011;5299;48.704;9.138;2022-08-05T23:16:12;4.30;;;2.13;;
10503;SDS011;5299;48.704;9.138;2022-08-05T23:20:33;3.17;;;1.63;;
10503;SDS011;5299;48.704;9.138;2022-08-05T23:24:37;2.95;;;1.48;;
10503;SDS011;5299;48.704;9.138;2022-08-05T23:28:48;5.65;;;2.03;;
10503;SDS011;5299;48.704;9.138;2022-08-05T23:32:50;4.82;;;2.05;;
10503;SDS011;5299;48.704;9.138;2022-08-05T23:36:52;2.78;;;1.70;;
10503;SDS011;5299;48.704;9.138;2022-08-05T23:40:55;3.08;;;1.42;;
10503;SDS011;5299;48.704;9.138;2022-08-05T23:44:56;3.95;;;1.77;;
10503;SDS011;5299;48.704;9.138;2022-08-05T23:48:57;3.30;;;1.55;;
10503;SDS011;5299;48.704;9.138;2022-08-05T23:53:16;4.50;;;1.50;;
10503;SDS011;5299;48.704;9.138;2022-08-05T23:57:23;4.13;;;1.63;;
